createdAt,value
2018-03-17T00:01:35.778Z,4.45
2018-03-17T00:04:04.272Z,4.40
2018-03-17T00:06:33.336Z,4.37
2018-03-17T00:09:03.237Z,4.32
2018-03-17T00:11:31.807Z,4.25
2018-03-17T00:14:00.836Z,4.25
2018-03-17T00:16:29.206Z,4.22
2018-03-17T00:18:58.680Z,4.21
2018-03-17T00:21:29.216Z,4.23
2018-03-17T00:23:57.631Z,4.20
2018-03-17T00:26:25.972Z,4.12
2018-03-17T00:28:55.340Z,4.10
2018-03-17T00:31:23.862Z,4.06
2018-03-17T00:33:52.205Z,4.02
2018-03-17T00:36:23.090Z,4.04
2018-03-17T00:38:51.723Z,4.02
2018-03-17T00:41:20.008Z,4.00
2018-03-17T00:43:50.024Z,4.01
2018-03-17T00:46:18.429Z,3.97
2018-03-17T00:48:48.554Z,3.96
2018-03-17T00:51:17.208Z,3.98
2018-03-17T00:53:45.888Z,3.96
2018-03-17T00:56:14.245Z,3.95
2018-03-17T00:58:42.535Z,3.92
2018-03-17T01:01:10.914Z,3.89
2018-03-17T01:03:39.213Z,3.85
2018-03-17T01:06:07.516Z,3.79
2018-03-17T01:08:36.375Z,3.71
2018-03-17T01:11:09.269Z,3.74
2018-03-17T01:13:39.553Z,3.80
2018-03-17T01:16:10.185Z,3.80
2018-03-17T01:18:43.370Z,3.60
2018-03-17T01:21:11.782Z,3.54
2018-03-17T01:23:42.744Z,3.51
2018-03-17T01:26:12.042Z,3.48
2018-03-17T01:28:42.092Z,3.49
2018-03-17T01:31:10.483Z,3.48
2018-03-17T01:33:38.744Z,3.49
2018-03-17T01:36:07.050Z,3.48
2018-03-17T01:38:35.382Z,3.49
2018-03-17T01:41:04.598Z,3.48
2018-03-17T01:43:33.040Z,3.47
2018-03-17T01:46:01.626Z,3.46
2018-03-17T01:48:29.966Z,3.32
2018-03-17T01:50:58.231Z,3.28
2018-03-17T01:53:26.648Z,3.33
2018-03-17T01:55:55.670Z,3.35
2018-03-17T01:58:24.004Z,3.36
2018-03-17T02:00:52.276Z,3.34
2018-03-17T02:03:20.587Z,3.29
2018-03-17T02:05:48.898Z,3.24
2018-03-17T02:08:17.428Z,3.23
2018-03-17T02:10:45.780Z,3.23
2018-03-17T02:13:14.061Z,3.27
2018-03-17T02:15:42.352Z,3.27
2018-03-17T02:18:10.918Z,3.19
2018-03-17T02:20:39.236Z,3.14
2018-03-17T02:23:07.610Z,3.16
2018-03-17T02:25:35.886Z,3.22
2018-03-17T02:28:04.225Z,3.29
2018-03-17T02:30:33.522Z,3.32
2018-03-17T02:33:01.933Z,3.29
2018-03-17T02:35:30.338Z,3.24
2018-03-17T02:37:58.632Z,3.21
2018-03-17T02:40:26.883Z,3.27
2018-03-17T02:42:59.872Z,3.29
2018-03-17T02:45:28.189Z,3.23
2018-03-17T02:47:56.727Z,3.18
2018-03-17T02:50:25.180Z,3.16
2018-03-17T02:52:53.551Z,3.20
2018-03-17T02:55:23.584Z,3.19
2018-03-17T02:57:53.589Z,3.17
2018-03-17T03:00:21.919Z,3.19
2018-03-17T03:02:50.209Z,3.19
2018-03-17T03:05:18.487Z,3.23
2018-03-17T03:07:46.823Z,3.26
2018-03-17T03:10:15.135Z,3.28
2018-03-17T03:12:45.292Z,3.31
2018-03-17T03:15:14.873Z,3.34
2018-03-17T03:17:43.151Z,3.38
2018-03-17T03:20:11.430Z,3.41
2018-03-17T03:22:41.501Z,3.45
2018-03-17T03:25:09.935Z,3.48
2018-03-17T03:27:38.229Z,3.41
2018-03-17T03:30:06.540Z,3.43
2018-03-17T03:32:34.817Z,3.46
2018-03-17T03:35:03.119Z,3.46
2018-03-17T03:37:31.497Z,3.44
2018-03-17T03:40:02.234Z,3.40
2018-03-17T03:42:30.751Z,3.37
2018-03-17T03:44:59.225Z,3.34
2018-03-17T03:47:30.201Z,3.34
2018-03-17T03:49:58.792Z,3.34
2018-03-17T03:52:27.198Z,3.33
2018-03-17T03:54:58.135Z,3.31
2018-03-17T03:57:26.577Z,3.23
2018-03-17T03:59:55.562Z,3.24
2018-03-17T04:02:23.849Z,3.26
2018-03-17T04:04:52.139Z,3.24
2018-03-17T04:07:23.171Z,3.23
2018-03-17T04:09:51.619Z,3.24
2018-03-17T04:12:19.941Z,3.26
2018-03-17T04:14:48.223Z,3.29
2018-03-17T04:17:16.497Z,3.31
2018-03-17T04:19:44.875Z,3.34
2018-03-17T04:22:14.202Z,3.35
2018-03-17T04:24:42.555Z,3.34
2018-03-17T04:27:10.843Z,3.32
2018-03-17T04:29:39.124Z,3.30
2018-03-17T04:32:09.073Z,3.30
2018-03-17T04:34:40.013Z,3.26
2018-03-17T04:37:08.423Z,3.27
2018-03-17T04:39:36.807Z,3.25
2018-03-17T04:42:05.125Z,3.23
2018-03-17T04:44:33.391Z,3.22
2018-03-17T04:47:01.825Z,3.26
2018-03-17T04:49:30.123Z,3.29
2018-03-17T04:51:58.451Z,3.34
2018-03-17T04:54:26.781Z,3.37
2018-03-17T04:56:55.314Z,3.39
2018-03-17T04:59:23.659Z,3.41
2018-03-17T05:01:52.036Z,3.42
2018-03-17T05:04:20.434Z,3.41
2018-03-17T05:06:50.993Z,3.32
2018-03-17T05:09:20.917Z,3.28
2018-03-17T05:11:51.004Z,3.28
2018-03-17T05:14:19.339Z,3.29
2018-03-17T05:16:47.654Z,3.28
2018-03-17T05:19:16.083Z,3.29
2018-03-17T05:21:44.415Z,3.33
2018-03-17T05:24:12.783Z,3.35
2018-03-17T05:26:41.069Z,3.35
2018-03-17T05:29:09.412Z,3.35
2018-03-17T05:31:37.757Z,3.36
2018-03-17T05:34:07.637Z,3.40
2018-03-17T05:36:36.097Z,3.41
2018-03-17T05:39:04.562Z,3.39
2018-03-17T05:41:32.873Z,3.35
2018-03-17T05:44:01.393Z,3.32
2018-03-17T05:46:29.745Z,3.28
2018-03-17T05:48:58.067Z,3.22
2018-03-17T05:51:29.057Z,3.19
2018-03-17T05:53:57.633Z,3.18
2018-03-17T05:56:26.675Z,3.18
2018-03-17T05:58:54.982Z,3.20
2018-03-17T06:01:23.344Z,3.25
2018-03-17T06:03:51.697Z,3.25
2018-03-17T06:06:22.191Z,3.29
2018-03-17T06:08:51.570Z,3.30
2018-03-17T06:11:19.850Z,3.34
2018-03-17T06:13:48.179Z,3.38
2018-03-17T06:16:16.534Z,3.40
2018-03-17T06:18:47.000Z,3.43
2018-03-17T06:21:16.547Z,3.45
2018-03-17T06:23:44.876Z,3.45
2018-03-17T06:26:13.236Z,3.50
2018-03-17T06:28:44.130Z,3.55
2018-03-17T06:31:12.481Z,3.59
2018-03-17T06:33:40.861Z,3.65
2018-03-17T06:36:11.460Z,3.71
2018-03-17T06:38:40.035Z,3.77
2018-03-17T06:41:08.429Z,3.83
2018-03-17T06:43:36.911Z,3.90
2018-03-17T06:46:05.260Z,3.95
2018-03-17T06:48:37.139Z,4.00
2018-03-17T06:51:05.473Z,4.04
2018-03-17T06:53:35.758Z,4.09
2018-03-17T06:56:07.829Z,4.13
2018-03-17T06:58:38.517Z,4.13
2018-03-17T07:01:09.634Z,4.17
2018-03-17T07:03:38.128Z,4.20
2018-03-17T07:06:11.756Z,4.23
2018-03-17T07:08:41.714Z,4.25
2018-03-17T07:11:10.046Z,4.28
2018-03-17T07:13:38.416Z,4.34
2018-03-17T07:16:08.593Z,4.38
2018-03-17T07:18:36.954Z,4.43
2018-03-17T07:21:05.370Z,4.49
2018-03-17T07:23:35.013Z,4.55
2018-03-17T07:26:05.760Z,4.64
2018-03-17T07:28:36.248Z,4.71
2018-03-17T07:31:04.898Z,4.67
2018-03-17T07:33:33.181Z,4.71
2018-03-17T07:36:01.506Z,4.75
2018-03-17T07:38:29.890Z,4.75
2018-03-17T07:40:58.292Z,4.80
2018-03-17T07:43:26.652Z,4.83
2018-03-17T07:45:55.047Z,4.87
2018-03-17T07:48:23.403Z,4.92
2018-03-17T07:50:53.546Z,4.95
2018-03-17T07:53:21.958Z,4.99
2018-03-17T07:55:54.272Z,5.04
2018-03-17T07:58:25.561Z,5.12
2018-03-17T08:00:55.533Z,5.15
2018-03-17T08:03:24.668Z,5.18
2018-03-17T08:05:54.723Z,5.19
2018-03-17T08:08:23.269Z,5.17
2018-03-17T08:10:51.677Z,5.18
2018-03-17T08:13:20.034Z,5.20
2018-03-17T08:15:48.442Z,5.24
2018-03-17T08:18:16.792Z,5.28
2018-03-17T08:20:45.298Z,5.29
2018-03-17T08:23:13.771Z,5.25
2018-03-17T08:25:42.164Z,5.23
2018-03-17T08:28:10.472Z,5.24
2018-03-17T08:30:38.846Z,5.27
2018-03-17T08:33:07.227Z,5.28
2018-03-17T08:35:35.608Z,5.32
2018-03-17T08:38:04.188Z,5.33
2018-03-17T08:40:32.947Z,5.27
2018-03-17T08:43:05.899Z,5.23
2018-03-17T08:45:34.239Z,5.23
2018-03-17T08:48:02.630Z,5.25
2018-03-17T08:50:31.118Z,5.29
2018-03-17T08:53:01.267Z,5.29
2018-03-17T08:55:32.076Z,5.27
2018-03-17T08:58:00.558Z,5.29
2018-03-17T09:00:31.449Z,5.32
2018-03-17T09:02:59.866Z,5.32
2018-03-17T09:05:29.839Z,5.39
2018-03-17T09:27:18.605Z,5.20
2018-03-17T09:29:47.008Z,5.29
2018-03-17T09:32:15.540Z,5.31
2018-03-17T09:34:43.955Z,5.27
2018-03-17T09:37:12.343Z,5.30
2018-03-17T09:39:40.751Z,5.26
2018-03-17T09:42:11.814Z,5.22
2018-03-17T09:44:41.125Z,5.20
2018-03-17T09:47:11.097Z,5.17
2018-03-17T09:49:39.526Z,5.08
2018-03-17T09:52:07.907Z,5.12
2018-03-17T09:54:36.289Z,5.22
2018-03-17T09:57:04.633Z,5.25
2018-03-17T09:59:33.009Z,5.22
2018-03-17T10:02:01.382Z,5.21
2018-03-17T10:04:29.881Z,5.24
2018-03-17T10:06:58.279Z,5.21
2018-03-17T10:09:32.393Z,5.22
2018-03-17T10:25:00.910Z,5.51
2018-03-17T10:27:29.318Z,5.46
2018-03-17T10:29:57.609Z,5.42
2018-03-17T10:32:27.782Z,5.41
2018-03-17T10:34:56.143Z,5.26
2018-03-17T10:37:24.487Z,5.22
2018-03-17T10:39:53.705Z,5.26
2018-03-17T10:42:22.307Z,5.35
2018-03-17T10:44:51.363Z,5.39
2018-03-17T10:47:21.435Z,5.49
2018-03-17T10:49:50.590Z,5.56
2018-03-17T10:52:20.557Z,5.52
2018-03-17T10:54:49.904Z,5.48
2018-03-17T10:57:18.301Z,5.32
2018-03-17T10:59:46.660Z,5.29
2018-03-17T11:02:15.759Z,5.25
2018-03-17T11:04:46.744Z,5.26
2018-03-17T11:07:15.118Z,5.37
2018-03-17T11:09:45.213Z,5.38
2018-03-17T11:12:15.204Z,5.31
2018-03-17T11:14:43.594Z,5.21
2018-03-17T11:17:11.951Z,5.18
2018-03-17T11:19:42.849Z,5.21
2018-03-17T11:22:11.222Z,5.19
2018-03-17T11:24:39.555Z,5.21
2018-03-17T11:27:07.903Z,5.13
2018-03-17T11:29:36.274Z,5.19
2018-03-17T11:32:05.750Z,5.25
2018-03-17T11:34:34.271Z,5.22
2018-03-17T11:37:02.599Z,5.27
2018-03-17T11:39:31.761Z,5.33
2018-03-17T11:42:01.757Z,5.37
2018-03-17T11:44:30.153Z,5.38
2018-03-17T11:47:00.207Z,5.41
2018-03-17T11:49:28.617Z,5.49
2018-03-17T11:51:56.941Z,5.49
2018-03-17T11:54:25.553Z,5.50
2018-03-17T11:56:54.280Z,5.40
2018-03-17T11:59:22.643Z,5.38
2018-03-17T12:01:51.084Z,5.35
2018-03-17T12:04:19.426Z,5.37
2018-03-17T12:06:47.901Z,5.43
2018-03-17T12:09:16.206Z,5.50
2018-03-17T12:11:45.340Z,5.40
2018-03-17T12:14:15.307Z,5.32
2018-03-17T12:16:43.639Z,5.31
2018-03-17T12:19:11.990Z,5.35
2018-03-17T12:21:42.144Z,5.36
2018-03-17T12:24:10.679Z,5.37
2018-03-17T12:26:41.031Z,5.29
2018-03-17T12:29:13.244Z,5.18
2018-03-17T12:31:43.812Z,5.11
2018-03-17T12:34:14.665Z,5.04
2018-03-17T12:36:44.835Z,4.98
2018-03-17T12:39:13.249Z,4.96
2018-03-17T12:41:41.750Z,4.89
2018-03-17T12:44:10.202Z,4.88
2018-03-17T12:46:38.634Z,4.80
2018-03-17T12:49:07.014Z,4.74
2018-03-17T12:51:37.226Z,4.61
2018-03-17T12:54:05.636Z,4.58
2018-03-17T12:56:35.016Z,4.55
2018-03-17T12:59:03.341Z,4.60
2018-03-17T13:01:31.970Z,4.55
2018-03-17T13:04:00.500Z,4.49
2018-03-17T13:06:28.792Z,4.52
2018-03-17T13:08:57.171Z,4.44
2018-03-17T13:11:26.245Z,4.42
2018-03-17T13:13:55.538Z,4.46
2018-03-17T13:16:24.132Z,4.49
2018-03-17T13:18:53.238Z,4.51
2018-03-17T13:21:22.295Z,4.55
2018-03-17T13:23:50.645Z,4.56
2018-03-17T13:26:20.608Z,4.60
2018-03-17T13:28:49.091Z,4.50
2018-03-17T13:31:17.432Z,4.42
2018-03-17T13:33:46.027Z,4.40
2018-03-17T13:36:26.122Z,4.40
2018-03-17T13:38:54.543Z,4.38
2018-03-17T13:41:23.015Z,4.36
2018-03-17T13:43:51.715Z,4.35
2018-03-17T13:46:20.072Z,4.30
2018-03-17T13:48:50.030Z,4.25
2018-03-17T13:51:18.455Z,4.24
2018-03-17T13:53:48.518Z,4.26
2018-03-17T13:56:16.986Z,4.30
2018-03-17T13:58:47.137Z,4.27
2018-03-17T14:03:49.669Z,4.15
2018-03-17T14:06:18.049Z,4.13
2018-03-17T14:08:46.441Z,4.11
2018-03-17T14:11:14.808Z,4.05
2018-03-17T14:13:43.156Z,4.05
2018-03-17T14:16:12.299Z,4.05
2018-03-17T14:18:42.538Z,4.00
2018-03-17T14:21:11.891Z,3.87
2018-03-17T14:23:40.222Z,3.90
2018-03-17T14:26:08.523Z,3.91
2018-03-17T14:28:39.033Z,3.94
2018-03-17T14:31:07.790Z,3.98
2018-03-17T14:33:38.278Z,3.95
2018-03-17T14:36:07.323Z,3.98
2018-03-17T14:38:38.739Z,3.97
2018-03-17T14:41:07.175Z,4.00
2018-03-17T14:43:35.480Z,4.02
2018-03-17T14:46:03.994Z,4.07
2018-03-17T14:48:32.476Z,4.07
2018-03-17T14:51:00.925Z,4.07
2018-03-17T14:53:29.398Z,4.07
2018-03-17T14:55:57.714Z,4.08
2018-03-17T14:58:26.790Z,4.04
2018-03-17T15:00:55.157Z,3.93
2018-03-17T15:03:25.206Z,3.74
2018-03-17T15:05:53.581Z,3.71
2018-03-17T15:08:24.218Z,3.72
2018-03-17T15:10:52.649Z,3.62
2018-03-17T15:13:21.202Z,3.57
2018-03-17T15:15:49.609Z,3.53
2018-03-17T15:18:19.023Z,3.56
2018-03-17T15:20:50.002Z,3.56
2018-03-17T15:23:19.662Z,3.55
2018-03-17T15:25:48.158Z,3.52
2018-03-17T15:28:17.293Z,3.50
2018-03-17T15:30:47.613Z,3.53
2018-03-17T15:33:22.044Z,3.50
2018-03-17T15:35:50.604Z,3.49
2018-03-17T15:38:18.925Z,3.46
2018-03-17T15:40:48.972Z,3.48
2018-03-17T15:43:18.554Z,3.49
2018-03-17T15:45:46.856Z,3.48
2018-03-17T15:48:15.184Z,3.40
2018-03-17T15:50:43.522Z,3.39
2018-03-17T15:53:14.528Z,3.39
2018-03-17T15:55:44.809Z,3.39
2018-03-17T15:58:14.057Z,3.40
2018-03-17T16:00:42.472Z,3.42
2018-03-17T16:03:10.802Z,3.42
2018-03-17T16:05:39.134Z,3.41
2018-03-17T16:08:10.240Z,3.34
2018-03-17T16:10:38.650Z,3.33
2018-03-17T16:13:07.080Z,3.36
2018-03-17T16:15:35.402Z,3.32
2018-03-17T16:18:04.818Z,3.22
2018-03-17T16:20:34.770Z,3.13
2018-03-17T16:23:03.186Z,3.01
2018-03-17T16:25:33.280Z,2.98
2018-03-17T16:28:01.622Z,2.91
2018-03-17T16:30:29.952Z,2.87
2018-03-17T16:32:58.299Z,2.89
2018-03-17T16:35:27.348Z,2.87
2018-03-17T16:37:58.225Z,2.85
2018-03-17T16:40:26.606Z,2.86
2018-03-17T16:42:56.625Z,2.86
2018-03-17T16:45:25.039Z,2.79
2018-03-17T16:47:53.374Z,2.75
2018-03-17T16:50:23.396Z,2.65
2018-03-17T16:52:51.781Z,2.59
2018-03-17T16:55:20.143Z,2.59
2018-03-17T16:57:48.488Z,2.58
2018-03-17T17:00:19.483Z,2.49
2018-03-17T17:02:49.285Z,2.48
2018-03-17T17:05:17.677Z,2.45
2018-03-17T17:07:46.159Z,2.44
2018-03-17T17:10:16.250Z,2.39
2018-03-17T17:12:45.062Z,2.37
2018-03-17T17:15:13.379Z,2.41
2018-03-17T17:17:41.709Z,2.41
2018-03-17T17:20:10.008Z,2.42
2018-03-17T17:22:38.439Z,2.44
2018-03-17T17:25:06.810Z,2.42
2018-03-17T17:27:35.326Z,2.41
2018-03-17T17:30:03.942Z,2.36
2018-03-17T17:32:33.864Z,2.29
2018-03-17T17:35:02.275Z,2.23
2018-03-17T17:37:30.803Z,2.22
2018-03-17T17:39:59.147Z,2.20
2018-03-17T17:42:29.515Z,2.20
2018-03-17T17:44:59.608Z,2.22
2018-03-17T17:47:27.992Z,2.18
2018-03-17T17:49:56.346Z,2.16
2018-03-17T17:52:24.955Z,2.12
2018-03-17T17:54:53.300Z,2.08
2018-03-17T17:57:21.644Z,1.99
2018-03-17T17:59:50.848Z,1.99
2018-03-17T18:02:19.172Z,1.95
2018-03-17T18:04:47.535Z,1.91
2018-03-17T18:07:15.911Z,1.89
2018-03-17T18:09:45.887Z,1.85
2018-03-17T18:12:14.303Z,1.76
2018-03-17T18:14:43.396Z,1.65
2018-03-17T18:17:12.466Z,1.66
2018-03-17T18:19:41.134Z,1.60
2018-03-17T18:22:09.488Z,1.62
2018-03-17T18:24:38.078Z,1.60
2018-03-17T18:27:08.989Z,1.58
2018-03-17T18:29:39.963Z,1.47
2018-03-17T18:32:09.158Z,1.44
2018-03-17T18:34:38.218Z,1.44
2018-03-17T18:37:06.577Z,1.39
2018-03-17T18:39:37.007Z,1.43
2018-03-17T18:42:05.351Z,1.44
2018-03-17T18:44:37.676Z,1.47
2018-03-17T18:47:08.865Z,1.46
2018-03-17T18:49:37.300Z,1.48
2018-03-17T18:52:06.597Z,1.48
2018-03-17T18:54:35.042Z,1.47
2018-03-17T18:57:05.126Z,1.46
2018-03-17T18:59:36.133Z,1.48
2018-03-17T19:02:04.494Z,1.49
2018-03-17T19:04:35.623Z,1.50
2018-03-17T19:07:04.682Z,1.51
2018-03-17T19:09:34.776Z,1.47
2018-03-17T19:12:04.993Z,1.49
2018-03-17T19:14:33.414Z,1.46
2018-03-17T19:17:01.752Z,1.46
2018-03-17T19:19:32.672Z,1.43
2018-03-17T19:22:03.345Z,1.41
2018-03-17T19:24:54.001Z,1.38
2018-03-17T20:06:48.071Z,0.92
2018-03-17T20:09:16.439Z,0.89
2018-03-17T20:11:44.904Z,0.85
2018-03-17T20:14:14.483Z,0.84
2018-03-17T20:16:44.714Z,0.82
2018-03-17T20:19:17.147Z,0.80
2018-03-17T20:21:45.684Z,0.75
2018-03-17T20:24:14.948Z,0.75
2018-03-17T20:26:45.910Z,0.77
2018-03-17T20:29:14.572Z,0.73
2018-03-17T20:34:18.076Z,0.66
2018-03-17T20:36:48.597Z,0.67
2018-03-17T20:39:17.358Z,0.67
2018-03-17T20:41:45.752Z,0.67
2018-03-17T20:44:14.291Z,0.61
2018-03-17T20:46:42.660Z,0.55
2018-03-17T20:49:11.010Z,0.57
2018-03-17T20:51:40.926Z,0.56
2018-03-17T20:54:10.041Z,0.52
2018-03-17T20:56:38.429Z,0.52
2018-03-17T20:59:06.918Z,0.53
2018-03-17T21:01:35.445Z,0.50
2018-03-17T21:04:04.749Z,0.48
2018-03-17T21:06:33.098Z,0.48
2018-03-17T21:09:01.430Z,0.52
2018-03-17T21:11:29.993Z,0.52
2018-03-17T21:13:58.334Z,0.51
2018-03-17T21:16:26.676Z,0.47
2018-03-17T21:18:56.871Z,0.44
2018-03-17T21:21:26.999Z,0.39
2018-03-17T21:23:56.135Z,0.40
2018-03-17T21:26:24.530Z,0.37
2018-03-17T21:28:52.887Z,0.35
2018-03-17T21:31:21.968Z,0.35
2018-03-17T21:33:50.340Z,0.35
2018-03-17T21:36:18.698Z,0.34
2018-03-17T21:38:47.068Z,0.32
2018-03-17T21:41:17.988Z,0.26
2018-03-17T21:43:46.485Z,0.25
2018-03-17T21:46:14.869Z,0.23
2018-03-17T21:48:44.797Z,0.20
2018-03-17T21:51:13.234Z,0.22
2018-03-17T21:53:41.608Z,0.20
2018-03-17T21:56:10.702Z,0.20
2018-03-17T21:58:40.784Z,0.21
2018-03-17T22:01:10.962Z,0.19
2018-03-17T22:03:39.287Z,0.17
2018-03-17T22:06:08.473Z,0.16
2018-03-17T22:08:36.847Z,0.14
2018-03-17T22:11:05.132Z,0.07
2018-03-17T22:13:36.473Z,-0.01
2018-03-17T22:16:04.799Z,-0.01
2018-03-17T22:18:34.056Z,-0.01
2018-03-17T22:21:03.132Z,-0.01
2018-03-17T22:23:33.197Z,-0.04
2018-03-17T22:26:01.553Z,-0.08
2018-03-17T22:28:30.653Z,-0.09
2018-03-17T22:30:58.994Z,-0.11
2018-03-17T22:33:28.099Z,-0.15
2018-03-17T22:35:58.039Z,-0.17
2018-03-17T22:38:26.457Z,-0.17
2018-03-17T22:40:56.390Z,-0.18
2018-03-17T22:43:24.893Z,-0.22
2018-03-17T22:45:53.245Z,-0.21
2018-03-17T22:48:21.696Z,-0.18
2018-03-17T22:50:50.096Z,-0.17
2018-03-17T22:53:18.466Z,-0.19
2018-03-17T22:55:47.004Z,-0.20
2018-03-17T22:58:17.091Z,-0.19
2018-03-17T23:00:48.090Z,-0.22
2018-03-17T23:03:18.208Z,-0.25
2018-03-17T23:05:46.537Z,-0.26
2018-03-17T23:08:14.915Z,-0.26
2018-03-17T23:10:44.608Z,-0.24
2018-03-17T23:13:12.924Z,-0.26
2018-03-17T23:15:43.044Z,-0.28
2018-03-17T23:18:13.044Z,-0.32
2018-03-17T23:20:43.127Z,-0.37
2018-03-17T23:23:11.628Z,-0.35
2018-03-17T23:25:39.932Z,-0.37
2018-03-17T23:30:42.832Z,-0.33
2018-03-17T23:33:11.194Z,-0.30
2018-03-17T23:35:39.564Z,-0.31
2018-03-17T23:38:08.664Z,-0.34
2018-03-17T23:40:37.048Z,-0.32
2018-03-17T23:43:05.428Z,-0.34
2018-03-17T23:45:33.800Z,-0.34
2018-03-17T23:48:02.100Z,-0.32
2018-03-17T23:50:31.186Z,-0.32
2018-03-17T23:52:59.486Z,-0.32
2018-03-17T23:55:27.886Z,-0.31
2018-03-17T23:57:58.964Z,-0.33
